sensor_id;sensor_type;location;lat;lon;timestamp;pressure;altitude;pressure_sealevel;temperature;humidity
11444;BME280;5778;47.856;12.154;2023-05-11T04:18:53;96101.00;;;8.81;100.00
11444;BME280;5778;47.856;12.154;2023-05-11T04:21:20;96097.53;;;8.81;100.00
11444;BME280;5778;47.856;12.154;2023-05-11T04:23:47;96102.47;;;8.72;100.00
11444;BME280;5778;47.856;12.154;2023-05-11T04:26:14;96104.94;;;8.79;100.00
11444;BME280;5778;47.856;12.154;2023-05-11T04:28:42;96100.13;;;8.76;100.00
11444;BME280;5778;47.856;12.154;2023-05-11T04:31:09;96101.53;;;8.62;100.00
11444;BME280;5778;47.856;12.154;2023-05-11T04:33:38;96096.25;;;8.62;100.00
11444;BME280;5778;47.856;12.154;2023-05-11T04:36:07;96098.97;;;8.67;100.00
11444;BME280;5778;47.856;12.154;2023-05-11T04:38:34;96104.00;;;8.68;100.00
11444;BME280;5778;47.856;12.154;2023-05-11T04:41:02;96105.78;;;8.63;100.00
11444;BME280;5778;47.856;12.154;2023-05-11T04:46:56;96111.16;;;8.68;100.00
11444;BME280;5778;47.856;12.154;2023-05-11T04:49:23;96109.38;;;8.73;100.00
11444;BME280;5778;47.856;12.154;2023-05-11T04:51:52;96117.38;;;8.78;100.00
11444;BME280;5778;47.856;12.154;2023-05-11T04:54:19;96109.06;;;8.70;100.00
11444;BME280;5778;47.856;12.154;2023-05-11T04:56:46;96102.16;;;8.69;100.00
11444;BME280;5778;47.856;12.154;2023-05-11T04:59:13;96111.47;;;8.71;100.00
11444;BME280;5778;47.856;12.154;2023-05-11T05:01:40;96104.81;;;8.69;100.00
11444;BME280;5778;47.856;12.154;2023-05-11T05:04:27;96105.94;;;8.73;100.00
11444;BME280;5778;47.856;12.154;2023-05-11T05:06:55;96110.13;;;8.69;100.00
11444;BME280;5778;47.856;12.154;2023-05-11T05:09:23;96107.53;;;8.74;100.00
11444;BME280;5778;47.856;12.154;2023-05-11T05:11:50;96113.25;;;8.66;100.00
11444;BME280;5778;47.856;12.154;2023-05-11T05:14:18;96108.66;;;8.78;100.00
11444;BME280;5778;47.856;12.154;2023-05-11T05:16:44;96111.78;;;8.75;100.00
11444;BME280;5778;47.856;12.154;2023-05-11T05:19:11;96114.44;;;8.75;100.00
11444;BME280;5778;47.856;12.154;2023-05-11T05:21:39;96106.91;;;8.88;100.00
11444;BME280;5778;47.856;12.154;2023-05-11T05:24:26;96109.19;;;8.80;100.00
11444;BME280;5778;47.856;12.154;2023-05-11T05:26:53;96112.47;;;8.87;100.00
11444;BME280;5778;47.856;12.154;2023-05-11T05:29:20;96114.81;;;8.83;100.00
11444;BME280;5778;47.856;12.154;2023-05-11T05:31:47;96110.78;;;8.81;100.00
11444;BME280;5778;47.856;12.154;2023-05-11T05:34:41;96116.97;;;8.86;100.00
11444;BME280;5778;47.856;12.154;2023-05-11T05:37:11;96120.41;;;8.87;100.00
11444;BME280;5778;47.856;12.154;2023-05-11T05:39:40;96119.44;;;8.71;100.00
11444;BME280;5778;47.856;12.154;2023-05-11T05:42:07;96123.97;;;8.76;100.00
11444;BME280;5778;47.856;12.154;2023-05-11T05:47:41;96122.91;;;8.55;100.00
11444;BME280;5778;47.856;12.154;2023-05-11T05:50:09;96117.84;;;8.54;100.00
11444;BME280;5778;47.856;12.154;2023-05-11T05:52:37;96123.06;;;8.49;100.00
11444;BME280;5778;47.856;12.154;2023-05-11T05:55:06;96123.06;;;8.49;100.00
11444;BME280;5778;47.856;12.154;2023-05-11T05:57:33;96121.78;;;8.51;100.00
11444;BME280;5778;47.856;12.154;2023-05-11T06:00:00;96121.72;;;8.46;100.00
11444;BME280;5778;47.856;12.154;2023-05-11T06:02:27;96131.38;;;8.52;100.00
11444;BME280;5778;47.856;12.154;2023-05-11T06:04:56;96122.50;;;8.63;100.00
11444;BME280;5778;47.856;12.154;2023-05-11T06:07:23;96129.81;;;8.56;100.00
11444;BME280;5778;47.856;12.154;2023-05-11T06:09:50;96127.41;;;8.55;100.00
11444;BME280;5778;47.856;12.154;2023-05-11T06:12:18;96129.03;;;8.56;100.00
11444;BME280;5778;47.856;12.154;2023-05-11T06:14:47;96132.28;;;8.63;100.00
11444;BME280;5778;47.856;12.154;2023-05-11T06:17:14;96134.13;;;8.62;100.00
11444;BME280;5778;47.856;12.154;2023-05-11T06:19:42;96137.66;;;8.68;100.00
11444;BME280;5778;47.856;12.154;2023-05-11T06:22:09;96140.56;;;8.66;100.00
11444;BME280;5778;47.856;12.154;2023-05-11T06:24:37;96140.16;;;8.74;100.00
11444;BME280;5778;47.856;12.154;2023-05-11T06:27:04;96136.94;;;8.72;100.00
11444;BME280;5778;47.856;12.154;2023-05-11T06:29:34;96144.81;;;8.67;100.00
11444;BME280;5778;47.856;12.154;2023-05-11T06:32:02;96137.66;;;8.68;100.00
11444;BME280;5778;47.856;12.154;2023-05-11T06:34:32;96141.38;;;8.67;100.00
11444;BME280;5778;47.856;12.154;2023-05-11T06:37:00;96146.59;;;8.62;100.00
11444;BME280;5778;47.856;12.154;2023-05-11T06:39:27;96141.84;;;8.64;100.00
11444;BME280;5778;47.856;12.154;2023-05-11T06:41:54;96145.19;;;8.76;100.00
11444;BME280;5778;47.856;12.154;2023-05-11T06:44:21;96140.28;;;8.84;100.00
11444;BME280;5778;47.856;12.154;2023-05-11T06:46:54;96139.34;;;8.74;100.00
11444;BME280;5778;47.856;12.154;2023-05-11T06:49:21;96134.03;;;8.74;100.00
11444;BME280;5778;47.856;12.154;2023-05-11T06:51:47;96133.22;;;8.73;100.00
11444;BME280;5778;47.856;12.154;2023-05-11T06:54:14;96144.88;;;8.72;100.00
11444;BME280;5778;47.856;12.154;2023-05-11T06:56:43;96128.88;;;8.84;100.00
11444;BME280;5778;47.856;12.154;2023-05-11T06:59:10;96133.72;;;8.70;100.00
11444;BME280;5778;47.856;12.154;2023-05-11T07:01:37;96140.88;;;8.70;100.00
11444;BME280;5778;47.856;12.154;2023-05-11T07:04:05;96125.66;;;8.82;100.00
11444;BME280;5778;47.856;12.154;2023-05-11T07:06:32;96130.84;;;8.93;100.00
11444;BME280;5778;47.856;12.154;2023-05-11T07:09:01;96131.16;;;8.97;100.00
11444;BME280;5778;47.856;12.154;2023-05-11T07:11:29;96127.44;;;8.98;100.00
11444;BME280;5778;47.856;12.154;2023-05-11T07:13:57;96122.53;;;8.85;100.00
11444;BME280;5778;47.856;12.154;2023-05-11T07:16:24;96133.25;;;8.95;100.00
11444;BME280;5778;47.856;12.154;2023-05-11T07:18:51;96131.16;;;8.97;100.00
11444;BME280;5778;47.856;12.154;2023-05-11T07:21:20;96125.38;;;9.00;100.00
11444;BME280;5778;47.856;12.154;2023-05-11T07:23:47;96131.91;;;9.14;100.00
11444;BME280;5778;47.856;12.154;2023-05-11T07:26:14;96133.81;;;9.18;100.00
11444;BME280;5778;47.856;12.154;2023-05-11T07:28:41;96126.97;;;9.01;100.00
11444;BME280;5778;47.856;12.154;2023-05-11T07:31:08;96125.06;;;8.96;100.00
11444;BME280;5778;47.856;12.154;2023-05-11T07:33:36;96130.22;;;9.08;100.00
11444;BME280;5778;47.856;12.154;2023-05-11T07:36:04;96122.88;;;9.15;100.00
11444;BME280;5778;47.856;12.154;2023-05-11T07:38:33;96122.56;;;9.11;100.00
11444;BME280;5778;47.856;12.154;2023-05-11T07:40:59;96124.38;;;9.06;100.00
11444;BME280;5778;47.856;12.154;2023-05-11T07:43:27;96116.09;;;9.24;100.00
11444;BME280;5778;47.856;12.154;2023-05-11T07:45:54;96125.19;;;9.28;100.00
11444;BME280;5778;47.856;12.154;2023-05-11T07:48:21;96134.91;;;9.22;100.00
11444;BME280;5778;47.856;12.154;2023-05-11T07:50:48;96129.97;;;9.31;100.00
11444;BME280;5778;47.856;12.154;2023-05-11T07:53:15;96126.84;;;9.34;100.00
11444;BME280;5778;47.856;12.154;2023-05-11T07:55:44;96126.72;;;9.45;100.00
11444;BME280;5778;47.856;12.154;2023-05-11T07:58:11;96133.38;;;9.48;100.00
11444;BME280;5778;47.856;12.154;2023-05-11T08:00:38;96132.84;;;9.51;100.00
11444;BME280;5778;47.856;12.154;2023-05-11T08:03:05;96127.06;;;9.54;100.00
11444;BME280;5778;47.856;12.154;2023-05-11T08:05:32;96126.50;;;9.52;100.00
11444;BME280;5778;47.856;12.154;2023-05-11T08:08:02;96128.00;;;9.43;100.00
11444;BME280;5778;47.856;12.154;2023-05-11T08:10:29;96129.66;;;9.49;100.00
11444;BME280;5778;47.856;12.154;2023-05-11T08:12:58;96134.44;;;9.52;100.00
11444;BME280;5778;47.856;12.154;2023-05-11T08:15:25;96129.31;;;9.67;100.00
11444;BME280;5778;47.856;12.154;2023-05-11T08:17:52;96128.06;;;9.74;100.00
11444;BME280;5778;47.856;12.154;2023-05-11T08:20:19;96125.75;;;9.83;100.00
11444;BME280;5778;47.856;12.154;2023-05-11T08:22:47;96121.22;;;9.57;100.00
11444;BME280;5778;47.856;12.154;2023-05-11T08:25:15;96123.94;;;9.62;100.00
11444;BME280;5778;47.856;12.154;2023-05-11T08:27:42;96127.00;;;9.75;100.00
11444;BME280;5778;47.856;12.154;2023-05-11T08:30:12;96127.72;;;9.66;100.00
11444;BME280;5778;47.856;12.154;2023-05-11T08:32:39;96127.28;;;9.79;100.00
11444;BME280;5778;47.856;12.154;2023-05-11T08:35:06;96129.06;;;9.68;100.00
11444;BME280;5778;47.856;12.154;2023-05-11T08:37:33;96133.91;;;10.03;100.00
11444;BME280;5778;47.856;12.154;2023-05-11T08:40:00;96125.56;;;9.89;100.00
11444;BME280;5778;47.856;12.154;2023-05-11T08:42:32;96119.41;;;10.15;100.00
11444;BME280;5778;47.856;12.154;2023-05-11T08:45:00;96124.22;;;10.18;100.00
11444;BME280;5778;47.856;12.154;2023-05-11T08:47:29;96129.09;;;10.31;100.00
11444;BME280;5778;47.856;12.154;2023-05-11T08:49:57;96123.44;;;10.23;100.00
11444;BME280;5778;47.856;12.154;2023-05-11T08:52:24;96122.97;;;10.26;100.00
11444;BME280;5778;47.856;12.154;2023-05-11T08:54:52;96122.41;;;9.97;100.00
11444;BME280;5778;47.856;12.154;2023-05-11T08:57:19;96120.53;;;9.93;100.00
11444;BME280;5778;47.856;12.154;2023-05-11T08:59:47;96117.25;;;9.81;100.00
11444;BME280;5778;47.856;12.154;2023-05-11T09:02:16;96120.56;;;9.98;100.00
11444;BME280;5778;47.856;12.154;2023-05-11T09:04:45;96120.16;;;10.42;100.00
11444;BME280;5778;47.856;12.154;2023-05-11T09:07:14;96118.59;;;10.46;100.00
11444;BME280;5778;47.856;12.154;2023-05-11T09:09:42;96111.75;;;10.55;100.00
11444;BME280;5778;47.856;12.154;2023-05-11T09:12:11;96115.34;;;10.81;100.00
11444;BME280;5778;47.856;12.154;2023-05-11T09:14:38;96113.59;;;10.55;100.00
11444;BME280;5778;47.856;12.154;2023-05-11T09:17:05;96107.38;;;10.86;100.00
11444;BME280;5778;47.856;12.154;2023-05-11T09:19:33;96109.53;;;10.94;100.00
11444;BME280;5778;47.856;12.154;2023-05-11T09:22:03;96110.88;;;10.50;100.00
11444;BME280;5778;47.856;12.154;2023-05-11T09:24:31;96112.97;;;10.43;100.00
11444;BME280;5778;47.856;12.154;2023-05-11T09:27:07;96107.78;;;10.58;100.00
11444;BME280;5778;47.856;12.154;2023-05-11T09:29:34;96115.44;;;10.49;100.00
11444;BME280;5778;47.856;12.154;2023-05-11T09:32:01;96103.22;;;10.58;100.00
11444;BME280;5778;47.856;12.154;2023-05-11T09:34:28;96107.16;;;10.46;100.00
11444;BME280;5778;47.856;12.154;2023-05-11T09:36:55;96098.19;;;10.62;100.00
11444;BME280;5778;47.856;12.154;2023-05-11T09:39:31;96107.50;;;10.54;100.00
11444;BME280;5778;47.856;12.154;2023-05-11T09:42:12;96101.69;;;10.67;100.00
11444;BME280;5778;47.856;12.154;2023-05-11T09:44:40;96091.66;;;10.79;100.00
11444;BME280;5778;47.856;12.154;2023-05-11T09:47:11;96097.63;;;10.55;100.00
11444;BME280;5778;47.856;12.154;2023-05-11T09:49:39;96094.50;;;10.63;100.00
11444;BME280;5778;47.856;12.154;2023-05-11T09:52:09;96092.50;;;10.38;100.00
11444;BME280;5778;47.856;12.154;2023-05-11T09:54:42;96097.78;;;10.33;100.00
11444;BME280;5778;47.856;12.154;2023-05-11T09:57:22;96104.19;;;10.42;100.00
11444;BME280;5778;47.856;12.154;2023-05-11T09:59:50;96102.94;;;10.55;100.00
11444;BME280;5778;47.856;12.154;2023-05-11T10:02:19;96094.47;;;10.58;100.00
11444;BME280;5778;47.856;12.154;2023-05-11T10:04:47;96096.25;;;10.47;100.00
11444;BME280;5778;47.856;12.154;2023-05-11T10:07:27;96100.72;;;10.37;100.00
11444;BME280;5778;47.856;12.154;2023-05-11T10:09:57;96101.56;;;10.47;100.00
11444;BME280;5778;47.856;12.154;2023-05-11T10:12:25;96101.25;;;10.39;100.00
11444;BME280;5778;47.856;12.154;2023-05-11T10:14:54;96100.81;;;10.52;100.00
11444;BME280;5778;47.856;12.154;2023-05-11T10:17:21;96099.34;;;10.76;100.00
11444;BME280;5778;47.856;12.154;2023-05-11T10:19:48;96091.44;;;10.86;100.00
11444;BME280;5778;47.856;12.154;2023-05-11T10:22:15;96093.66;;;11.09;100.00
11444;BME280;5778;47.856;12.154;2023-05-11T10:24:43;96091.47;;;10.91;100.00
11444;BME280;5778;47.856;12.154;2023-05-11T10:27:11;96089.69;;;10.60;100.00
11444;BME280;5778;47.856;12.154;2023-05-11T10:29:39;96096.28;;;10.52;100.00
11444;BME280;5778;47.856;12.154;2023-05-11T10:32:06;96088.56;;;10.51;100.00
11444;BME280;5778;47.856;12.154;2023-05-11T10:34:33;96088.78;;;10.39;100.00
11444;BME280;5778;47.856;12.154;2023-05-11T10:37:00;96091.09;;;10.31;100.00
11444;BME280;5778;47.856;12.154;2023-05-11T10:39:28;96086.22;;;10.18;100.00
11444;BME280;5778;47.856;12.154;2023-05-11T10:42:05;96090.81;;;10.27;100.00
11444;BME280;5778;47.856;12.154;2023-05-11T10:45:17;96082.69;;;10.44;100.00
11444;BME280;5778;47.856;12.154;2023-05-11T10:48:25;96082.50;;;10.55;100.00
11444;BME280;5778;47.856;12.154;2023-05-11T10:51:03;96084.00;;;10.41;100.00
11444;BME280;5778;47.856;12.154;2023-05-11T10:53:44;96085.06;;;10.40;100.00
11444;BME280;5778;47.856;12.154;2023-05-11T10:56:29;96083.25;;;10.51;100.00
11444;BME280;5778;47.856;12.154;2023-05-11T10:59:19;96076.34;;;10.50;100.00
11444;BME280;5778;47.856;12.154;2023-05-11T11:01:54;96076.47;;;10.75;100.00
11444;BME280;5778;47.856;12.154;2023-05-11T11:04:23;96075.25;;;10.51;100.00
11444;BME280;5778;47.856;12.154;2023-05-11T11:07:03;96080.59;;;10.46;100.00
11444;BME280;5778;47.856;12.154;2023-05-11T11:09:51;96076.88;;;10.47;100.00
11444;BME280;5778;47.856;12.154;2023-05-11T11:12:18;96076.34;;;10.50;100.00
11444;BME280;5778;47.856;12.154;2023-05-11T11:14:54;96075.59;;;10.54;100.00
11444;BME280;5778;47.856;12.154;2023-05-11T11:17:25;96071.84;;;10.55;100.00
11444;BME280;5778;47.856;12.154;2023-05-11T11:19:53;96069.94;;;10.46;100.00
11444;BME280;5778;47.856;12.154;2023-05-11T11:22:43;96077.88;;;10.41;100.00
11444;BME280;5778;47.856;12.154;2023-05-11T11:25:14;96080.75;;;10.34;100.00
11444;BME280;5778;47.856;12.154;2023-05-11T11:27:57;96068.88;;;10.47;100.00
11444;BME280;5778;47.856;12.154;2023-05-11T11:30:25;96075.72;;;10.38;100.00
11444;BME280;5778;47.856;12.154;2023-05-11T11:33:32;96066.72;;;10.44;100.00
11444;BME280;5778;47.856;12.154;2023-05-11T11:36:00;96069.34;;;10.39;100.00
11444;BME280;5778;47.856;12.154;2023-05-11T11:38:27;96069.41;;;10.49;100.00
11444;BME280;5778;47.856;12.154;2023-05-11T11:40:56;96071.09;;;10.65;100.00
11444;BME280;5778;47.856;12.154;2023-05-11T11:43:25;96075.22;;;10.41;100.00
11444;BME280;5778;47.856;12.154;2023-05-11T11:45:53;96066.19;;;10.42;100.00
11444;BME280;5778;47.856;12.154;2023-05-11T11:48:24;96076.09;;;10.15;100.00
11444;BME280;5778;47.856;12.154;2023-05-11T11:51:03;96068.72;;;10.22;100.00
11444;BME280;5778;47.856;12.154;2023-05-11T11:54:04;96072.53;;;10.36;100.00
11444;BME280;5778;47.856;12.154;2023-05-11T11:56:44;96078.44;;;10.43;100.00
11444;BME280;5778;47.856;12.154;2023-05-11T11:59:12;96072.00;;;10.39;100.00
11444;BME280;5778;47.856;12.154;2023-05-11T12:01:41;96075.72;;;10.38;100.00
11444;BME280;5778;47.856;12.154;2023-05-11T12:07:14;96069.94;;;10.46;100.00
11444;BME280;5778;47.856;12.154;2023-05-11T12:09:44;96078.00;;;10.61;100.00
11444;BME280;5778;47.856;12.154;2023-05-11T12:12:11;96076.94;;;10.62;100.00
11444;BME280;5778;47.856;12.154;2023-05-11T12:14:39;96082.25;;;10.62;100.00
11444;BME280;5778;47.856;12.154;2023-05-11T12:17:22;96077.41;;;10.49;100.00
11444;BME280;5778;47.856;12.154;2023-05-11T12:19:49;96075.22;;;10.41;100.00
11444;BME280;5778;47.856;12.154;2023-05-11T12:22:22;96080.75;;;10.34;100.00
11444;BME280;5778;47.856;12.154;2023-05-11T12:24:50;96076.31;;;10.45;100.00
11444;BME280;5778;47.856;12.154;2023-05-11T12:27:17;96078.59;;;10.68;100.00
11444;BME280;5778;47.856;12.154;2023-05-11T12:29:48;96081.25;;;10.68;100.00
11444;BME280;5778;47.856;12.154;2023-05-11T12:32:15;96072.75;;;10.76;100.00
11444;BME280;5778;47.856;12.154;2023-05-11T12:34:58;96069.94;;;10.51;100.00
11444;BME280;5778;47.856;12.154;2023-05-11T12:37:28;96077.53;;;10.74;100.00
11444;BME280;5778;47.856;12.154;2023-05-11T12:39:55;96071.94;;;10.70;100.00
11444;BME280;5778;47.856;12.154;2023-05-11T12:42:23;96076.50;;;10.80;100.00
11444;BME280;5778;47.856;12.154;2023-05-11T12:44:50;96070.72;;;10.98;100.00
11444;BME280;5778;47.856;12.154;2023-05-11T12:47:17;96067.50;;;10.86;100.00
11444;BME280;5778;47.856;12.154;2023-05-11T12:49:44;96072.03;;;10.90;100.00
11444;BME280;5778;47.856;12.154;2023-05-11T12:52:12;96064.09;;;11.00;100.00
11444;BME280;5778;47.856;12.154;2023-05-11T12:54:47;96066.72;;;10.95;100.00
11444;BME280;5778;47.856;12.154;2023-05-11T12:57:23;96065.94;;;10.95;100.00
11444;BME280;5778;47.856;12.154;2023-05-11T13:00:07;96066.69;;;10.85;100.00
11444;BME280;5778;47.856;12.154;2023-05-11T13:02:42;96067.44;;;10.76;100.00
11444;BME280;5778;47.856;12.154;2023-05-11T13:05:11;96066.44;;;10.87;100.00
11444;BME280;5778;47.856;12.154;2023-05-11T13:07:38;96065.16;;;10.99;100.00
11444;BME280;5778;47.856;12.154;2023-05-11T13:10:07;96058.00;;;11.10;100.00
11444;BME280;5778;47.856;12.154;2023-05-11T13:12:36;96053.16;;;10.97;100.00
11444;BME280;5778;47.856;12.154;2023-05-11T13:15:13;96051.31;;;11.02;100.00
11444;BME280;5778;47.856;12.154;2023-05-11T13:17:41;96051.72;;;10.69;100.00
11444;BME280;5778;47.856;12.154;2023-05-11T13:20:16;96053.66;;;10.89;100.00
11444;BME280;5778;47.856;12.154;2023-05-11T13:22:44;96053.31;;;10.75;100.00
11444;BME280;5778;47.856;12.154;2023-05-11T13:25:14;96055.50;;;10.83;100.00
11444;BME280;5778;47.856;12.154;2023-05-11T13:27:41;96046.22;;;10.86;100.00
11444;BME280;5778;47.856;12.154;2023-05-11T13:30:09;96048.09;;;10.90;100.00
11444;BME280;5778;47.856;12.154;2023-05-11T13:32:37;96044.63;;;10.90;100.00
11444;BME280;5778;47.856;12.154;2023-05-11T13:35:05;96045.91;;;10.77;100.00
11444;BME280;5778;47.856;12.154;2023-05-11T13:37:32;96045.84;;;10.62;100.00
11444;BME280;5778;47.856;12.154;2023-05-11T13:39:59;96048.81;;;10.76;100.00
11444;BME280;5778;47.856;12.154;2023-05-11T13:42:27;96047.19;;;10.70;100.00
11444;BME280;5778;47.856;12.154;2023-05-11T13:44:54;96052.56;;;10.80;100.00
11444;BME280;5778;47.856;12.154;2023-05-11T13:47:22;96051.00;;;10.89;100.00
11444;BME280;5778;47.856;12.154;2023-05-11T13:49:49;96048.38;;;10.99;100.00
11444;BME280;5778;47.856;12.154;2023-05-11T13:52:18;96054.75;;;10.98;100.00
11444;BME280;5778;47.856;12.154;2023-05-11T13:54:45;96046.22;;;10.91;100.00
11444;BME280;5778;47.856;12.154;2023-05-11T13:57:12;96046.19;;;10.81;100.00
11444;BME280;5778;47.856;12.154;2023-05-11T13:59:40;96055.47;;;10.78;100.00
11444;BME280;5778;47.856;12.154;2023-05-11T14:02:07;96045.94;;;10.82;100.00
11444;BME280;5778;47.856;12.154;2023-05-11T14:04:34;96045.16;;;10.92;100.00
11444;BME280;5778;47.856;12.154;2023-05-11T14:07:00;96049.44;;;10.98;100.00
11444;BME280;5778;47.856;12.154;2023-05-11T14:09:27;96051.59;;;11.01;100.00
11444;BME280;5778;47.856;12.154;2023-05-11T14:11:55;96047.63;;;11.03;100.00
11444;BME280;5778;47.856;12.154;2023-05-11T14:14:22;96045.69;;;10.89;100.00
11444;BME280;5778;47.856;12.154;2023-05-11T14:16:50;96036.63;;;10.80;100.00
11444;BME280;5778;47.856;12.154;2023-05-11T14:19:17;96047.50;;;10.78;100.00
11444;BME280;5778;47.856;12.154;2023-05-11T14:21:44;96048.78;;;10.71;100.00
11444;BME280;5778;47.856;12.154;2023-05-11T14:24:11;96039.75;;;10.72;100.00
11444;BME280;5778;47.856;12.154;2023-05-11T14:26:37;96031.75;;;10.67;100.00
11444;BME280;5778;47.856;12.154;2023-05-11T14:29:04;96031.81;;;10.77;100.00
11444;BME280;5778;47.856;12.154;2023-05-11T14:31:31;96030.72;;;10.73;100.00
11444;BME280;5778;47.856;12.154;2023-05-11T14:34:01;96033.69;;;10.76;100.00
11444;BME280;5778;47.856;12.154;2023-05-11T14:36:28;96035.84;;;10.89;100.00
11444;BME280;5778;47.856;12.154;2023-05-11T14:38:54;96028.34;;;10.71;100.00
11444;BME280;5778;47.856;12.154;2023-05-11T14:41:21;96025.16;;;10.79;100.00
11444;BME280;5778;47.856;12.154;2023-05-11T14:43:48;96035.03;;;10.89;100.00
11444;BME280;5778;47.856;12.154;2023-05-11T14:46:15;96029.66;;;10.69;100.00
11444;BME280;5778;47.856;12.154;2023-05-11T14:48:42;96031.34;;;10.90;100.00
11444;BME280;5778;47.856;12.154;2023-05-11T14:51:10;96029.44;;;10.85;100.00
11444;BME280;5778;47.856;12.154;2023-05-11T14:53:37;96029.44;;;10.85;100.00
11444;BME280;5778;47.856;12.154;2023-05-11T14:56:05;96033.16;;;10.84;100.00
11444;BME280;5778;47.856;12.154;2023-05-11T14:58:32;96031.88;;;10.97;100.00
11444;BME280;5778;47.856;12.154;2023-05-11T15:00:59;96034.53;;;10.92;100.00
11444;BME280;5778;47.856;12.154;2023-05-11T15:03:26;96025.44;;;10.83;100.00
11444;BME280;5778;47.856;12.154;2023-05-11T15:05:53;96032.38;;;10.84;100.00
11444;BME280;5778;47.856;12.154;2023-05-11T15:08:21;96037.84;;;10.62;100.00
11444;BME280;5778;47.856;12.154;2023-05-11T15:10:48;96038.91;;;10.61;100.00
11444;BME280;5778;47.856;12.154;2023-05-11T15:13:15;96037.34;;;10.65;100.00
11444;BME280;5778;47.856;12.154;2023-05-11T15:15:42;96042.91;;;10.64;100.00
11444;BME280;5778;47.856;12.154;2023-05-11T15:18:09;96035.25;;;10.72;100.00
11444;BME280;5778;47.856;12.154;2023-05-11T15:20:38;96041.31;;;10.63;100.00
11444;BME280;5778;47.856;12.154;2023-05-11T15:23:06;96039.41;;;10.53;100.00
11444;BME280;5778;47.856;12.154;2023-05-11T15:25:35;96045.50;;;10.49;100.00
11444;BME280;5778;47.856;12.154;2023-05-11T15:28:02;96042.81;;;10.44;100.00
11444;BME280;5778;47.856;12.154;2023-05-11T15:30:30;96040.91;;;10.34;100.00
11444;BME280;5778;47.856;12.154;2023-05-11T15:32:57;96044.88;;;10.32;100.00
11444;BME280;5778;47.856;12.154;2023-05-11T15:35:24;96050.50;;;10.40;100.00
11444;BME280;5778;47.856;12.154;2023-05-11T15:37:50;96041.72;;;10.40;100.00
11444;BME280;5778;47.856;12.154;2023-05-11T15:40:17;96037.72;;;10.37;100.00
11444;BME280;5778;47.856;12.154;2023-05-11T15:42:46;96048.66;;;10.41;100.00
11444;BME280;5778;47.856;12.154;2023-05-11T15:45:12;96043.38;;;10.51;100.00
11444;BME280;5778;47.856;12.154;2023-05-11T15:47:39;96047.56;;;10.37;100.00
11444;BME280;5778;47.856;12.154;2023-05-11T15:50:06;96044.69;;;10.48;100.00
11444;BME280;5778;47.856;12.154;2023-05-11T15:52:33;96044.94;;;10.42;100.00
11444;BME280;5778;47.856;12.154;2023-05-11T15:55:01;96047.94;;;10.55;100.00
11444;BME280;5778;47.856;12.154;2023-05-11T15:57:29;96047.97;;;10.60;100.00
11444;BME280;5778;47.856;12.154;2023-05-11T15:59:57;96039.16;;;10.60;100.00
11444;BME280;5778;47.856;12.154;2023-05-11T16:02:24;96046.59;;;10.53;100.00
11444;BME280;5778;47.856;12.154;2023-05-11T16:04:51;96040.06;;;10.29;100.00
11444;BME280;5778;47.856;12.154;2023-05-11T16:07:18;96035.41;;;10.46;100.00
11444;BME280;5778;47.856;12.154;2023-05-11T16:09:45;96035.75;;;10.23;100.00
11444;BME280;5778;47.856;12.154;2023-05-11T16:12:12;96039.47;;;10.22;100.00
11444;BME280;5778;47.856;12.154;2023-05-11T16:14:39;96044.78;;;10.22;100.00
11444;BME280;5778;47.856;12.154;2023-05-11T16:17:07;96044.06;;;10.31;100.00
11444;BME280;5778;47.856;12.154;2023-05-11T16:19:35;96046.53;;;10.43;100.00
11444;BME280;5778;47.856;12.154;2023-05-11T16:22:02;96043.03;;;10.37;100.00
11444;BME280;5778;47.856;12.154;2023-05-11T16:24:29;96046.03;;;10.46;100.00
11444;BME280;5778;47.856;12.154;2023-05-11T16:26:57;96046.56;;;10.48;100.00
11444;BME280;5778;47.856;12.154;2023-05-11T16:29:24;96040.16;;;10.44;100.00
11444;BME280;5778;47.856;12.154;2023-05-11T16:31:51;96042.63;;;10.55;100.00
11444;BME280;5778;47.856;12.154;2023-05-11T16:34:20;96042.88;;;10.54;100.00
11444;BME280;5778;47.856;12.154;2023-05-11T16:36:47;96045.31;;;10.60;100.00
11444;BME280;5778;47.856;12.154;2023-05-11T16:39:14;96043.44;;;10.66;100.00
11444;BME280;5778;47.856;12.154;2023-05-11T16:41:41;96041.81;;;10.60;100.00
11444;BME280;5778;47.856;12.154;2023-05-11T16:44:09;96030.88;;;10.51;100.00
11444;BME280;5778;47.856;12.154;2023-05-11T16:46:36;96037.78;;;10.47;100.00
11444;BME280;5778;47.856;12.154;2023-05-11T16:49:02;96034.78;;;10.34;100.00
11444;BME280;5778;47.856;12.154;2023-05-11T16:51:31;96032.81;;;10.19;100.00
11444;BME280;5778;47.856;12.154;2023-05-11T16:53:58;96028.25;;;10.10;100.00
11444;BME280;5778;47.856;12.154;2023-05-11T16:56:25;96036.50;;;10.13;100.00
11444;BME280;5778;47.856;12.154;2023-05-11T16:58:52;96037.66;;;9.96;100.00
11444;BME280;5778;47.856;12.154;2023-05-11T17:01:19;96029.84;;;10.11;100.00
11444;BME280;5778;47.856;12.154;2023-05-11T17:03:46;96033.75;;;10.03;100.00
11444;BME280;5778;47.856;12.154;2023-05-11T17:06:13;96029.28;;;10.04;100.00
11444;BME280;5778;47.856;12.154;2023-05-11T17:08:43;96018.72;;;10.14;100.00
11444;BME280;5778;47.856;12.154;2023-05-11T17:11:10;96027.31;;;10.31;100.00
11444;BME280;5778;47.856;12.154;2023-05-11T17:13:38;96031.56;;;10.32;100.00
11444;BME280;5778;47.856;12.154;2023-05-11T17:16:05;96026.53;;;10.35;100.00
11444;BME280;5778;47.856;12.154;2023-05-11T17:18:31;96024.44;;;10.42;100.00
11444;BME280;5778;47.856;12.154;2023-05-11T17:20:58;96030.00;;;10.36;100.00
11444;BME280;5778;47.856;12.154;2023-05-11T17:23:40;96020.63;;;10.23;100.00
11444;BME280;5778;47.856;12.154;2023-05-11T17:26:10;96022.50;;;10.28;100.00
11444;BME280;5778;47.856;12.154;2023-05-11T17:28:37;96023.31;;;10.28;100.00
11444;BME280;5778;47.856;12.154;2023-05-11T17:31:08;96024.78;;;10.09;100.00